Nearby METAR Reports

 

KEDC - Austin Exec, Texas, USA
Distance from station: SSE 10mi, 17km
Updated: Tue, 07-Jul-2020 1:15pm CDT
Few Clouds
Few Clouds
 Wind from SSW
Wind: SSW 9 mph , 15 km/h
Temperature: 91°F , 33°C
Heat Index: 98°F , 37°C
Dew Point: 72°F , 22°C
Humidity: 52%
Barometer: 29.96 inHg , 1014.6 hPa
Clouds: Few Clouds
Visibility: 8 miles , 13 km
Cloud details: Few Clouds 4100 ft
2020/07/07 18:15 KEDC 071815Z AUTO 20008KT 8SM FEW041 33/22 A2996 RMK AO2
KGTU - Georgetown, Texas, USA
Distance from station: NNW 11mi, 17km
Updated: Tue, 07-Jul-2020 12:56pm CDT
Partly cloudy
Partly cloudy
 Wind from S
Wind: S 8 mph , 13 km/h
Temperature: 91°F , 33°C
Heat Index: 98°F , 37°C
Dew Point: 72°F , 22°C
Humidity: 52%
Barometer: 29.98 inHg , 1015.2 hPa
Clouds: Partly cloudy
Visibility: 10 miles , 16 km
Cloud details: Partly cloudy 4300 ft
Partly cloudy 8000 ft
2020/07/07 17:56 KGTU 071756Z 19007KT 10SM SCT043 SCT080 33/22 A2998 RMK AO2 SLP143 T03330222 10333 20267 58001
 
KATT - Austin/Mabry, Texas, USA
Distance from station: SSW 18mi, 30km
Updated: Tue, 07-Jul-2020 12:51pm CDT
Partly cloudy
Partly cloudy
 Wind from varies
Wind: varies 7 mph , 11 km/h
Temperature: 95°F , 35°C
Heat Index: 105°F , 41°C
Dew Point: 73°F , 23°C
Humidity: 50%
Barometer: 29.97 inHg , 1014.9 hPa
Clouds: Partly cloudy
Visibility: 10 miles , 16 km
Cloud details: Partly cloudy 3900 ft
Partly cloudy 4700 ft
2020/07/07 17:51 KATT 071751Z AUTO VRB06KT 10SM SCT039 SCT047 35/23 A2997 RMK AO2 SLP130 T03500228 10350 20272 58002
KRYW - Lago Vista, Texas, USA
Distance from station: W 22mi, 35km
Updated: Tue, 07-Jul-2020 1:35pm CDT
Partly cloudy
Partly cloudy
 Wind from S
Wind: S 7 mph , 11 km/h
Temperature: 91°F , 33°C
Heat Index: 96°F , 36°C
Dew Point: 70°F , 21°C
Humidity: 49%
Barometer: 29.98 inHg , 1015.2 hPa
Clouds: Partly cloudy
Visibility: 10 miles , 16 km
Cloud details: Partly cloudy 7500 ft
2020/07/07 18:35 KRYW 071835Z AUTO 17006KT 10SM SCT075 33/21 A2998 RMK AO2 T03330213
 
KAUS - Austin, Texas, USA
Distance from station: S 25mi, 41km
Updated: Tue, 07-Jul-2020 12:53pm CDT
Mostly cloudy
Mostly cloudy
 Wind from SSW
Wind: SSW 7 mph , 11 km/h, Gust: 16 mph , 26 km/h
Temperature: 91°F , 33°C
Heat Index: 102°F , 39°C
Dew Point: 75°F , 24°C
Humidity: 59%
Barometer: 29.96 inHg , 1014.6 hPa
Clouds: Mostly cloudy
Visibility: 10 miles , 16 km
Cloud details: Few Clouds 3500 ft
Partly cloudy 4600 ft
Mostly cloudy 20000 ft
2020/07/07 17:53 KAUS 071753Z 20006G14KT 10SM FEW035 SCT046 BKN200 33/24 A2996 RMK AO2 SLP131 T03330239 10333 20261 58000 $
KILE - Killeen Muni, Texas, USA
Distance from station: N 36mi, 58km
Updated: Tue, 07-Jul-2020 12:56pm CDT

 Wind from NE
Wind: NE 17 mph , 28 km/h, Gust: 26 mph , 43 km/h
Temperature: 79°F , 26°C
Dew Point: 70°F , 21°C
Humidity: 74%
Barometer: 30.00 inHg , 1015.9 hPa
Visibility: 10 miles , 16 km
2020/07/07 17:56 KILE 071756Z AUTO 05015G23KT 10SM 26/21 A3000 RMK AO2 PK WND 03027/1720 LTG DSNT N AND NW SLP147 60000 T02560211 10317 20250 53014 $
 
KGRK - Gray/Ft Hood, Texas, USA
Distance from station: NNW 38mi, 62km
Updated: Tue, 07-Jul-2020 1:33pm CDT
Rain, Nearby thunderstorm, Overcast
Rain, Nearby thunderstorm, Overcast
 Wind from ENE
Wind: ENE 15 mph , 24 km/h
Temperature: 75°F , 24°C
Dew Point: 72°F , 22°C
Humidity: 89%
Barometer: 30.00 inHg , 1015.9 hPa
Summary: Rain, Nearby thunderstorm
Clouds: Overcast
Visibility: 1 mile , 2 km
Cloud details: Few Clouds 700 ft
Mostly cloudy 4400 ft
Overcast 7500 ft
2020/07/07 18:33 KGRK 071833Z 07013KT 1SM R33/P6000FT RA VCTS FEW007 BKN044 OVC075 24/22 A3000 RMK AO2A RAB18 SLP149
KBMQ - Burnet, Texas, USA
Distance from station: WNW 39mi, 64km
Updated: Tue, 07-Jul-2020 12:53pm CDT
Clear
Clear
 Wind from varies
Wind: varies 7 mph , 11 km/h, Gust: 17 mph , 28 km/h
Temperature: 91°F , 33°C
Heat Index: 94°F , 34°C
Dew Point: 66°F , 19°C
Humidity: 44%
Barometer: 30.00 inHg , 1015.9 hPa
Clouds: Clear
Visibility: 10 miles , 16 km
2020/07/07 17:53 KBMQ 071753Z AUTO VRB06G15KT 10SM CLR 33/19 A3000 RMK AO2 SLP137 T03330194 10333 20256 50001
 
KHLR - Ft Hood/Killeen, Texas, USA
Distance from station: N 41mi, 66km
Updated: Tue, 07-Jul-2020 12:58pm CDT
Nearby thunderstorm, Partly cloudy
Nearby thunderstorm, Partly cloudy
 Wind from ENE
Wind: ENE 17 mph , 28 km/h
Temperature: 77°F , 25°C
Dew Point: 70°F , 21°C
Humidity: 79%
Barometer: 30.00 inHg , 1015.9 hPa
Summary: Nearby Thunderstorm
Clouds: Partly cloudy
Visibility: 10 miles , 16 km
Cloud details: Few Clouds 4300 ft
Partly cloudy 30000 ft
2020/07/07 17:58 KHLR 071758Z AUTO 06015KT 10SM VCTS FEW043 SCT300 25/21 A3000 RMK AO2 PK WND 05027/11 SLP148 T02530209 10311 20249 52012
KTPL - Temple/Miller, Texas, USA
Distance from station: NNE 42mi, 68km
Updated: Tue, 07-Jul-2020 1:30pm CDT
Nearby thunderstorm, Mostly cloudy
Nearby thunderstorm, Mostly cloudy
 Wind from NNE
Wind: NNE 12 mph , 19 km/h
Temperature: 75°F , 24°C
Dew Point: 73°F , 23°C
Humidity: 94%
Barometer: 30.01 inHg , 1016.3 hPa
Summary: Nearby Thunderstorm
Clouds: Mostly cloudy
Visibility: 10 miles , 16 km
Cloud details: Partly cloudy 5000 ft
Mostly cloudy 8000 ft
2020/07/07 18:30 KTPL 071830Z AUTO 03010KT 10SM VCTS SCT050 BKN080 24/23 A3001 RMK AO2 LTG DSNT ALQDS TSB24
 
KT35 - Cameron, Texas, USA
Distance from station: ENE 45mi, 72km
Updated: Tue, 07-Jul-2020 1:35pm CDT
Heavy rain, Overcast
Heavy rain, Overcast
 Wind from E
Wind: E 9 mph , 15 km/h
Temperature: 72°F , 22°C
Dew Point: 70°F , 21°C
Humidity: 94%
Barometer: 30.01 inHg , 1016.3 hPa
Summary: Heavy rain
Clouds: Overcast
Visibility: 1 1/2 miles , 2.4 km
Cloud details: Mostly cloudy 1400 ft
Overcast 2000 ft
2020/07/07 18:35 KT35 071835Z AUTO 08008KT 1 1/2SM +RA BKN014 OVC020 22/21 A3001 RMK AO2 VIS 3/4V4 P0088 T02240210 TSNO
KDZB - Horseshoe Bay, Texas, USA
Distance from station: W 45mi, 73km
Updated: Tue, 07-Jul-2020 1:36pm CDT
Partly cloudy
Partly cloudy
 Wind from SW
Wind: SW 5 mph , 7 km/h
Temperature: 97°F , 36°C
Dew Point: 66°F , 19°C
Humidity: 37%
Barometer: 29.97 inHg , 1014.9 hPa
Clouds: Partly cloudy
Visibility: 10 miles , 16 km
Cloud details: Partly cloudy 6000 ft
2020/07/07 18:36 KDZB 071836Z AUTO 22004KT 10SM SCT060 36/19 A2997 RMK AO2
 
KGYB - Giddings-Lee, Texas, USA
Distance from station: SE 45mi, 73km
Updated: Tue, 07-Jul-2020 1:35pm CDT
Partly cloudy
Partly cloudy
 Wind from S
Wind: S 9 mph , 15 km/h
Temperature: 93°F , 34°C
Heat Index: 103°F , 39°C
Dew Point: 73°F , 23°C
Humidity: 53%
Barometer: 29.97 inHg , 1014.9 hPa
Clouds: Partly cloudy
Visibility: 10 miles , 16 km
Cloud details: Partly cloudy 3900 ft
Partly cloudy 4600 ft
2020/07/07 18:35 KGYB 071835Z AUTO 19008KT 150V210 10SM SCT039 SCT046 34/23 A2997 RMK AO2 T03410228
KHYI - San Marcos, Texas, USA
Distance from station: SSW 48mi, 78km
Updated: Tue, 07-Jul-2020 12:56pm CDT
Partly cloudy
Partly cloudy
 Wind from SSW
Wind: SSW 13 mph , 20 km/h
Temperature: 93°F , 34°C
Heat Index: 103°F , 39°C
Dew Point: 73°F , 23°C
Humidity: 53%
Barometer: 29.97 inHg , 1014.9 hPa
Clouds: Partly cloudy
Visibility: 10 miles , 16 km
Cloud details: Partly cloudy 4300 ft
Partly cloudy 5000 ft
2020/07/07 17:56 KHYI 071756Z 21011KT 10SM SCT043 SCT050 34/23 A2997 RMK AO2 SLP136 T03390233 10339 20267 58003
 
KLZZ - Lampasas, Texas, USA
Distance from station: NW 52mi, 84km
Updated: Tue, 07-Jul-2020 1:15pm CDT
Mostly cloudy
Mostly cloudy
 Wind from ENE
Wind: ENE 18 mph , 30 km/h, Gust: 28 mph , 44 km/h
Temperature: 81°F , 27°C
Heat Index: 85°F , 29°C
Dew Point: 70°F , 21°C
Humidity: 70%
Barometer: 30.00 inHg , 1015.9 hPa
Clouds: Mostly cloudy
Visibility: 10 miles , 16 km
Cloud details: Partly cloudy 4900 ft
Mostly cloudy 6000 ft
2020/07/07 18:15 KLZZ 071815Z AUTO 06016G24KT 10SM SCT049 BKN060 27/21 A3000 RMK AO2 LTG DSNT NE T02720207
KRWV - Caldwell, Texas, USA
Distance from station: E 54mi, 87km
Updated: Tue, 07-Jul-2020 1:35pm CDT
Partly cloudy
Partly cloudy
 Wind from WSW
Wind: WSW 7 mph , 11 km/h
Temperature: 91°F , 33°C
Heat Index: 100°F , 38°C
Dew Point: 73°F , 23°C
Humidity: 56%
Barometer: 29.97 inHg , 1014.9 hPa
Clouds: Partly cloudy
Visibility: 10 miles , 16 km
Cloud details: Partly cloudy 4100 ft
Partly cloudy 5000 ft
2020/07/07 18:35 KRWV 071835Z AUTO 25006KT 10SM SCT041 SCT050 33/23 A2997 RMK AO2 LTG DSNT NE AND NW T03290233
 
K3T5 - La Grange, Texas, USA
Distance from station: SE 59mi, 95km
Updated: Tue, 07-Jul-2020 1:35pm CDT
Mostly cloudy
Mostly cloudy
 Wind from SW
Wind: SW 6 mph , 9 km/h
Temperature: 93°F , 34°C
Heat Index: 103°F , 39°C
Dew Point: 73°F , 23°C
Humidity: 53%
Barometer: 29.93 inHg , 1013.5 hPa
Clouds: Mostly cloudy
Visibility: 10 miles , 16 km
Cloud details: Partly cloudy 4100 ft
Mostly cloudy 4700 ft
2020/07/07 18:35 K3T5 071835Z AUTO 23005KT 10SM SCT041 BKN047 34/23 A2993 RMK AO2 T03390228
KGOP - Gatesville, Texas, USA
Distance from station: N 61mi, 99km
Updated: Tue, 07-Jul-2020 1:35pm CDT
Nearby thunderstorm, Rain, Mostly cloudy
Nearby thunderstorm, Rain, Mostly cloudy
 Wind from SE
Wind: SE 7 mph , 11 km/h
Temperature: 72°F , 22°C
Dew Point: 72°F , 22°C
Humidity: 100%
Barometer: 30.03 inHg , 1016.9 hPa
Summary: Nearby thunderstorm, Rain
Clouds: Mostly cloudy
Visibility: 4 miles , 6 km
Cloud details: Partly cloudy 200 ft
Mostly cloudy 1000 ft
Mostly cloudy 4000 ft
2020/07/07 18:35 KGOP 071835Z AUTO 14006KT 4SM VCTS RA SCT002 BKN010 BKN040 22/22 A3003 RMK AO2 LTG DSNT ALQDS
 
KLHB - Hearne Muni, Texas, USA
Distance from station: ENE 63mi, 101km
Updated: Tue, 07-Jul-2020 1:35pm CDT

 Wind from N
Wind: N 9 mph , 15 km/h
Visibility: 5 miles , 8 km
2020/07/07 18:35 KLHB 071835Z AUTO 01008KT 5SM -VCTSRA SCT025 SCT031 OVC038 24/22 A3000 RMK AO2 LTG DSNT N AND W P0005 T02400223
KBAZ - New Braunfels, Texas, USA
Distance from station: SSW 63mi, 102km
Updated: Tue, 07-Jul-2020 12:51pm CDT
Mostly cloudy
Mostly cloudy
 Wind from S
Wind: S 13 mph , 20 km/h
Temperature: 93°F , 34°C
Heat Index: 100°F , 38°C
Dew Point: 72°F , 22°C
Humidity: 49%
Barometer: 29.95 inHg , 1014.2 hPa
Clouds: Mostly cloudy
Visibility: 10 miles , 16 km
Cloud details: Mostly cloudy 4300 ft
Mostly cloudy 5000 ft
2020/07/07 17:51 KBAZ 071751Z 18011KT 10SM BKN043 BKN050 34/22 A2995 RMK AO2 SLP131 T03440222 10350 20278 58002